Winfield, Ohio
Current Conditions -  °F | °C
As of 4:53 AM on Saturday 25 Oct 2014 (Local Time) from KPHD Reporting Station
Scattered Clouds Scattered Clouds  
Wind Chill: 41°   Ceiling: Unl
Heat Index: 41°   Visibility: 7mi
Dew Point: 39°   Wind: 3mph
Humidity: 93%   Direction: 120°ESE
Pressure: 29.98"   Gusts: NA
Location:  40.5515°N, 81.4667°W
Report Text: KPHD 250853Z AUTO 12003KT 7SM SCT040 05/04 A2998 RMK AO2 SLP153 T00500039 58010
Loading
Personal Weather Stations






























Interactive Weather Map
Tropical Storm Tracking
New forecast layout! Learn more

10-Day Weather Forecast

Advertisements
Track Severe Weather on mobile